Time;durP1;ratioP1;P1;durP2;ratioP2;P2;SDS_P1;SDS_P2;PMS_P1;PMS_P2;Temp;Humidity;BMP_temperature;BMP_pressure;BME280_temperature;BME280_humidity;BME280_pressure;Samples;Min_cycle;Max_cycle;Signal;HPM_P1;HPM_P2
2023/10/11 00:00:39;;;;;;;8.50;3.90;;;;;;;;;;5020066;28;20708;-68
2023/10/11 00:03:14;;;;;;;10.57;3.90;;;;;;;;;;5025663;28;20218;-67
2023/10/11 00:05:42;;;;;;;7.32;4.05;;;;;;;;;;5017738;28;20280;-67
2023/10/11 00:08:09;;;;;;;7.63;4.10;;;;;;;;;;5020049;28;20232;-67
2023/10/11 00:10:42;;;;;;;5.60;3.63;;;;;;;;;;5019564;28;20196;-67
2023/10/11 00:13:11;;;;;;;6.47;3.53;;;;;;;;;;5016836;28;20207;-68
2023/10/11 00:15:39;;;;;;;4.85;3.42;;;;;;;;;;5020517;28;20200;-67
2023/10/11 00:18:06;;;;;;;6.63;4.00;;;;;;;;;;5019299;28;20208;-67
2023/10/11 00:20:47;;;;;;;6.55;3.83;;;;;;;;;;5019729;28;20493;-68
2023/10/11 00:23:17;;;;;;;7.60;3.63;;;;;;;;;;5019422;28;20757;-68
2023/10/11 00:25:45;;;;;;;7.28;3.63;;;;;;;;;;5017737;28;20204;-68
2023/10/11 00:28:14;;;;;;;5.95;3.30;;;;;;;;;;5015811;28;20201;-68
2023/10/11 00:30:46;;;;;;;7.72;4.13;;;;;;;;;;5024564;28;20200;-67
2023/10/11 00:33:13;;;;;;;8.02;4.05;;;;;;;;;;5018045;28;20205;-67
2023/10/11 00:35:44;;;;;;;8.60;3.60;;;;;;;;;;5019980;28;20215;-67
2023/10/11 00:38:18;;;;;;;4.82;3.42;;;;;;;;;;5016113;28;20201;-68
2023/10/11 00:40:45;;;;;;;9.80;3.75;;;;;;;;;;5013326;28;20270;-68
2023/10/11 00:43:17;;;;;;;5.07;3.42;;;;;;;;;;5020909;28;20204;-67
2023/10/11 00:45:45;;;;;;;8.60;3.97;;;;;;;;;;5020090;28;20205;-68
2023/10/11 00:48:19;;;;;;;7.70;3.75;;;;;;;;;;5019553;28;20205;-68
2023/10/11 00:50:49;;;;;;;8.25;4.13;;;;;;;;;;5021262;28;20199;-68
2023/10/11 00:53:18;;;;;;;8.00;3.92;;;;;;;;;;5016312;28;20200;-68
2023/10/11 00:55:45;;;;;;;9.38;3.70;;;;;;;;;;5021488;28;20197;-68
2023/10/11 00:58:17;;;;;;;5.35;3.53;;;;;;;;;;5019985;28;20299;-67
2023/10/11 01:00:48;;;;;;;6.75;3.78;;;;;;;;;;5017467;28;20221;-68
2023/10/11 01:03:17;;;;;;;6.68;3.97;;;;;;;;;;5021229;28;20205;-68
2023/10/11 01:05:47;;;;;;;6.55;3.90;;;;;;;;;;5020776;28;20205;-68
2023/10/11 01:08:14;;;;;;;5.63;3.75;;;;;;;;;;5022753;28;20295;-68
2023/10/11 01:10:45;;;;;;;5.57;3.63;;;;;;;;;;5017882;28;20197;-68
2023/10/11 01:13:13;;;;;;;4.90;3.10;;;;;;;;;;5019488;28;20228;-68
2023/10/11 01:15:40;;;;;;;8.00;3.40;;;;;;;;;;5025701;28;20288;-68
2023/10/11 01:18:10;;;;;;;10.35;3.70;;;;;;;;;;5015173;28;20208;-67
2023/10/11 01:20:40;;;;;;;4.82;3.58;;;;;;;;;;5018685;28;20228;-68
2023/10/11 01:23:08;;;;;;;9.13;3.70;;;;;;;;;;5020099;28;20200;-68
2023/10/11 01:25:35;;;;;;;5.38;3.47;;;;;;;;;;5020154;28;20209;-68
2023/10/11 01:28:02;;;;;;;9.80;3.55;;;;;;;;;;5017831;28;20204;-68
2023/10/11 01:30:29;;;;;;;5.57;3.60;;;;;;;;;;5026581;28;20207;-68
2023/10/11 01:32:56;;;;;;;10.93;4.50;;;;;;;;;;5022557;28;20204;-68
2023/10/11 01:35:28;;;;;;;7.35;3.92;;;;;;;;;;5017652;28;20204;-67
2023/10/11 01:37:57;;;;;;;6.53;4.25;;;;;;;;;;5016646;28;20201;-68
2023/10/11 01:40:24;;;;;;;5.32;3.85;;;;;;;;;;5022001;28;20216;-68
2023/10/11 01:42:51;;;;;;;7.70;4.45;;;;;;;;;;5021889;28;20204;-68
2023/10/11 01:45:19;;;;;;;7.05;4.20;;;;;;;;;;5022596;28;20211;-66
2023/10/11 01:47:47;;;;;;;5.82;3.83;;;;;;;;;;5018735;28;20749;-65
2023/10/11 01:50:15;;;;;;;7.68;4.10;;;;;;;;;;5017070;28;20228;-66
2023/10/11 01:52:42;;;;;;;6.72;4.78;;;;;;;;;;5025904;28;20215;-64
2023/10/11 01:55:13;;;;;;;5.80;4.32;;;;;;;;;;5023433;28;20212;-64
2023/10/11 01:57:45;;;;;;;6.13;3.78;;;;;;;;;;5017385;28;20211;-64
2023/10/11 02:00:14;;;;;;;8.38;3.85;;;;;;;;;;5017248;28;20232;-64
2023/10/11 02:02:47;;;;;;;9.63;4.13;;;;;;;;;;5018170;28;20211;-64
2023/10/11 02:05:15;;;;;;;9.15;4.10;;;;;;;;;;5016486;28;20479;-64
2023/10/11 02:07:42;;;;;;;5.45;3.53;;;;;;;;;;5022846;28;20208;-64
2023/10/11 02:10:12;;;;;;;5.70;3.45;;;;;;;;;;5022850;28;20224;-65
2023/10/11 02:12:44;;;;;;;10.32;3.90;;;;;;;;;;5021881;28;20350;-64
2023/10/11 02:15:13;;;;;;;6.22;3.67;;;;;;;;;;5023860;28;20205;-64
2023/10/11 02:17:40;;;;;;;6.18;4.00;;;;;;;;;;5022488;28;20201;-65
2023/10/11 02:20:13;;;;;;;6.45;3.67;;;;;;;;;;5023138;28;20197;-64
2023/10/11 02:22:44;;;;;;;9.32;4.00;;;;;;;;;;5019987;28;20208;-64
2023/10/11 02:25:15;;;;;;;5.50;3.75;;;;;;;;;;5021874;28;20299;-65
2023/10/11 02:27:44;;;;;;;6.07;3.53;;;;;;;;;;5023802;28;20206;-64
2023/10/11 02:30:20;;;;;;;6.80;3.70;;;;;;;;;;5022363;28;20200;-64
2023/10/11 02:32:47;;;;;;;10.30;3.88;;;;;;;;;;5023343;28;20273;-64
2023/10/11 02:35:15;;;;;;;6.13;3.88;;;;;;;;;;5020331;28;20200;-64
2023/10/11 02:37:45;;;;;;;9.95;3.92;;;;;;;;;;5021578;28;20203;-64
2023/10/11 02:40:16;;;;;;;7.43;3.92;;;;;;;;;;5022178;28;20201;-64
2023/10/11 02:42:44;;;;;;;6.90;3.92;;;;;;;;;;5019265;28;20286;-64
2023/10/11 02:45:13;;;;;;;6.35;3.90;;;;;;;;;;5024320;28;20205;-65
2023/10/11 02:47:40;;;;;;;5.03;4.30;;;;;;;;;;5021930;28;20197;-64
2023/10/11 02:50:08;;;;;;;7.78;4.30;;;;;;;;;;5018492;28;20229;-64
2023/10/11 02:52:39;;;;;;;5.85;3.90;;;;;;;;;;5019703;28;20251;-64
2023/10/11 02:55:16;;;;;;;5.88;4.15;;;;;;;;;;5024636;28;20232;-64
2023/10/11 02:57:45;;;;;;;6.97;4.47;;;;;;;;;;5021980;28;20204;-64
2023/10/11 03:00:21;;;;;;;8.13;4.32;;;;;;;;;;5023421;28;20203;-64
2023/10/11 03:02:53;;;;;;;5.53;4.10;;;;;;;;;;5020698;28;20208;-64
2023/10/11 03:05:26;;;;;;;5.05;4.20;;;;;;;;;;5023639;28;20221;-64
2023/10/11 03:07:53;;;;;;;7.75;4.20;;;;;;;;;;5020692;28;20288;-64
2023/10/11 03:10:21;;;;;;;8.82;4.28;;;;;;;;;;5019195;28;20218;-64
2023/10/11 03:12:51;;;;;;;7.93;4.20;;;;;;;;;;5026167;28;20205;-64
2023/10/11 03:15:20;;;;;;;8.57;4.25;;;;;;;;;;5021152;28;20196;-64
2023/10/11 03:17:52;;;;;;;8.63;4.85;;;;;;;;;;5015408;28;20209;-64
2023/10/11 03:20:28;;;;;;;10.95;4.45;;;;;;;;;;5022339;28;20287;-64
2023/10/11 03:22:59;;;;;;;9.25;5.18;;;;;;;;;;5024121;28;20269;-64
2023/10/11 03:25:29;;;;;;;10.10;4.28;;;;;;;;;;5018268;28;20307;-64
2023/10/11 03:27:57;;;;;;;6.95;4.53;;;;;;;;;;5023210;28;20207;-64
2023/10/11 03:30:25;;;;;;;7.28;4.35;;;;;;;;;;5021510;28;20212;-64
2023/10/11 03:32:52;;;;;;;6.43;4.35;;;;;;;;;;5019854;28;20288;-65
2023/10/11 03:35:19;;;;;;;6.18;4.20;;;;;;;;;;5025551;28;20196;-64
2023/10/11 03:37:58;;;;;;;8.77;4.60;;;;;;;;;;5015496;28;20258;-64
2023/10/11 03:40:34;;;;;;;7.82;4.57;;;;;;;;;;5022381;28;20212;-64
2023/10/11 03:43:03;;;;;;;9.15;4.80;;;;;;;;;;5020082;28;20211;-64
2023/10/11 03:45:34;;;;;;;8.02;4.45;;;;;;;;;;5018672;28;20247;-64
2023/10/11 03:48:09;;;;;;;6.88;4.75;;;;;;;;;;5018715;28;20193;-64
2023/10/11 03:50:36;;;;;;;9.10;4.47;;;;;;;;;;5016979;28;20240;-64
2023/10/11 03:53:10;;;;;;;8.50;4.38;;;;;;;;;;5020932;28;20204;-64
2023/10/11 03:55:46;;;;;;;8.98;4.53;;;;;;;;;;5023160;28;20231;-64
2023/10/11 03:58:32;;;;;;;7.35;4.68;;;;;;;;;;5017409;28;20208;-64
2023/10/11 04:01:08;;;;;;;8.52;4.38;;;;;;;;;;5025188;28;20224;-65
2023/10/11 04:03:35;;;;;;;8.70;4.32;;;;;;;;;;5017175;28;20228;-66
2023/10/11 04:06:05;;;;;;;7.60;4.38;;;;;;;;;;5022357;28;20204;-65
2023/10/11 04:08:39;;;;;;;4.78;3.60;;;;;;;;;;5019044;28;20200;-65
2023/10/11 04:11:14;;;;;;;8.57;4.57;;;;;;;;;;5020681;28;20250;-65
2023/10/11 04:13:45;;;;;;;7.07;4.20;;;;;;;;;;5014795;28;20204;-64
2023/10/11 04:16:12;;;;;;;7.43;4.30;;;;;;;;;;5012444;28;20228;-66
2023/10/11 04:18:40;;;;;;;7.22;4.10;;;;;;;;;;5013287;28;20224;-64
2023/10/11 04:23:55;;;;;;;9.43;4.00;;;;;;;;;;5016030;28;20204;-64
2023/10/11 04:26:37;;;;;;;9.88;4.38;;;;;;;;;;5015659;28;20212;-65
2023/10/11 04:29:16;;;;;;;5.80;3.88;;;;;;;;;;5015877;28;20506;-64
2023/10/11 04:31:55;;;;;;;6.13;4.13;;;;;;;;;;5012207;28;20213;-66
2023/10/11 04:34:31;;;;;;;6.05;3.72;;;;;;;;;;5013745;28;20312;-65
2023/10/11 04:37:00;;;;;;;8.73;3.92;;;;;;;;;;5016385;28;20307;-65
2023/10/11 04:39:34;;;;;;;6.68;4.07;;;;;;;;;;5019060;28;20200;-65
2023/10/11 04:42:02;;;;;;;7.78;4.10;;;;;;;;;;5021142;28;20221;-66
2023/10/11 04:44:42;;;;;;;7.60;4.18;;;;;;;;;;5019185;28;20282;-64
2023/10/11 04:47:09;;;;;;;8.75;4.32;;;;;;;;;;5016611;28;20204;-64
2023/10/11 04:49:36;;;;;;;6.07;3.67;;;;;;;;;;5022845;28;20335;-65
2023/10/11 04:52:10;;;;;;;8.48;4.18;;;;;;;;;;5016375;28;20308;-64
2023/10/11 04:54:43;;;;;;;6.00;3.72;;;;;;;;;;5016372;28;20211;-67
2023/10/11 04:57:17;;;;;;;7.65;4.25;;;;;;;;;;5012812;28;20227;-64
2023/10/11 04:59:46;;;;;;;7.05;4.10;;;;;;;;;;5017016;28;20345;-64
2023/10/11 05:02:23;;;;;;;6.18;4.13;;;;;;;;;;5018544;28;20223;-64
2023/10/11 05:04:51;;;;;;;8.18;3.90;;;;;;;;;;5013674;28;20226;-64
2023/10/11 05:07:21;;;;;;;7.30;3.85;;;;;;;;;;5017703;28;20273;-64
2023/10/11 05:09:56;;;;;;;6.78;4.75;;;;;;;;;;5021602;28;20204;-65
2023/10/11 05:12:24;;;;;;;7.10;4.57;;;;;;;;;;5019470;28;20308;-65
2023/10/11 05:15:00;;;;;;;8.52;4.70;;;;;;;;;;5021664;28;20208;-65
2023/10/11 05:17:38;;;;;;;6.78;4.90;;;;;;;;;;5026527;28;20196;-65
2023/10/11 05:23:05;;;;;;;9.10;4.60;;;;;;;;;;5097505;27;20572;-65
2023/10/11 05:25:40;;;;;;;7.90;4.35;;;;;;;;;;5073235;28;20321;-66
2023/10/11 05:28:27;;;;;;;5.47;4.18;;;;;;;;;;5069861;28;20201;-65
2023/10/11 05:31:19;;;;;;;8.15;3.63;;;;;;;;;;5069963;28;20202;-66
2023/10/11 05:33:58;;;;;;;8.38;4.38;;;;;;;;;;5065859;28;20292;-65
2023/10/11 05:36:38;;;;;;;8.15;4.80;;;;;;;;;;5063395;28;20194;-65
2023/10/11 05:52:55;;;;;;;7.20;4.63;;;;;;;;;;5062529;28;20217;-64
2023/10/11 05:55:24;;;;;;;7.93;4.90;;;;;;;;;;5067935;28;20221;-65
2023/10/11 05:57:51;;;;;;;9.07;5.00;;;;;;;;;;5067143;28;20364;-65
2023/10/11 06:00:25;;;;;;;9.85;5.10;;;;;;;;;;5064473;28;20207;-65
2023/10/11 06:02:52;;;;;;;8.90;5.18;;;;;;;;;;5065031;28;20227;-64
2023/10/11 06:05:23;;;;;;;7.90;5.82;;;;;;;;;;5066467;28;20229;-65
2023/10/11 06:08:00;;;;;;;8.25;4.70;;;;;;;;;;5071096;28;20337;-66
2023/10/11 06:10:41;;;;;;;7.10;4.50;;;;;;;;;;5067476;28;20218;-65
2023/10/11 06:13:13;;;;;;;7.43;4.43;;;;;;;;;;5064191;28;20199;-64
2023/10/11 06:15:44;;;;;;;6.68;4.68;;;;;;;;;;5064218;28;20202;-65
2023/10/11 06:18:35;;;;;;;9.32;4.90;;;;;;;;;;5066070;28;20241;-66
2023/10/11 06:21:05;;;;;;;8.75;4.70;;;;;;;;;;5064362;28;20234;-64
2023/10/11 06:23:32;;;;;;;8.75;4.95;;;;;;;;;;5069469;28;20207;-64
2023/10/11 06:26:28;;;;;;;9.75;5.45;;;;;;;;;;5067007;28;20282;-65
2023/10/11 06:28:48;;;;;;;10.02;5.45;;;;;;;;;;5067575;28;20269;-64
2023/10/11 06:31:16;;;;;;;10.73;5.57;;;;;;;;;;5071206;28;20198;-64
2023/10/11 06:33:45;;;;;;;11.02;5.75;;;;;;;;;;5059299;28;20227;-65
2023/10/11 06:36:16;;;;;;;8.20;5.28;;;;;;;;;;5054751;28;20519;-65
2023/10/11 06:38:44;;;;;;;10.38;5.07;;;;;;;;;;5051959;28;20234;-64
2023/10/11 06:44:00;;;;;;;7.75;4.78;;;;;;;;;;5052859;28;20223;-65
2023/10/11 06:46:28;;;;;;;7.30;5.07;;;;;;;;;;5055616;28;20207;-64
2023/10/11 06:48:58;;;;;;;12.35;5.60;;;;;;;;;;5056292;28;20218;-65
2023/10/11 06:51:25;;;;;;;8.65;5.07;;;;;;;;;;5054437;28;20195;-64
2023/10/11 06:53:57;;;;;;;9.55;4.60;;;;;;;;;;5054239;28;20254;-65
2023/10/11 06:56:27;;;;;;;8.95;4.78;;;;;;;;;;5053076;28;20207;-64
2023/10/11 06:58:55;;;;;;;10.65;5.10;;;;;;;;;;5054695;28;20213;-65
2023/10/11 07:01:22;;;;;;;9.23;4.80;;;;;;;;;;5053815;28;20240;-65
2023/10/11 07:03:52;;;;;;;8.80;5.03;;;;;;;;;;5051609;28;20203;-65
2023/10/11 07:06:22;;;;;;;10.90;5.18;;;;;;;;;;5054572;28;20222;-66
2023/10/11 07:08:58;;;;;;;9.73;5.10;;;;;;;;;;5054616;28;20263;-64
2023/10/11 07:11:50;;;;;;;8.93;4.95;;;;;;;;;;5054303;28;20209;-65
2023/10/11 07:14:18;;;;;;;6.68;4.80;;;;;;;;;;5051741;28;20231;-64
2023/10/11 07:16:45;;;;;;;10.88;4.50;;;;;;;;;;5057138;28;20210;-64
2023/10/11 07:19:15;;;;;;;8.10;4.70;;;;;;;;;;5054836;28;20287;-64
2023/10/11 07:21:52;;;;;;;9.93;4.57;;;;;;;;;;5049632;28;20284;-64
2023/10/11 07:27:14;;;;;;;7.72;4.70;;;;;;;;;;5051418;28;20207;-64
2023/10/11 07:29:42;;;;;;;7.72;4.60;;;;;;;;;;5050525;28;20226;-65
2023/10/11 07:32:10;;;;;;;9.70;4.45;;;;;;;;;;5053031;28;20203;-65
2023/10/11 07:34:38;;;;;;;9.77;4.50;;;;;;;;;;5046210;28;20236;-68
2023/10/11 07:37:06;;;;;;;8.45;4.80;;;;;;;;;;5055321;28;20211;-68
2023/10/11 07:39:34;;;;;;;7.45;4.32;;;;;;;;;;5046689;28;20210;-64
2023/10/11 07:42:06;;;;;;;9.13;4.70;;;;;;;;;;5052170;28;20235;-64
2023/10/11 07:44:37;;;;;;;6.53;4.30;;;;;;;;;;5049179;28;20218;-64
2023/10/11 07:47:06;;;;;;;11.90;4.97;;;;;;;;;;5050789;28;20214;-64
2023/10/11 07:49:38;;;;;;;7.78;4.28;;;;;;;;;;5049468;28;20207;-64
2023/10/11 07:52:09;;;;;;;9.18;4.78;;;;;;;;;;5050001;28;20291;-64
2023/10/11 07:54:39;;;;;;;10.02;5.28;;;;;;;;;;5050107;28;20207;-63
2023/10/11 07:57:12;;;;;;;7.70;4.57;;;;;;;;;;5056974;28;20234;-64
2023/10/11 07:59:41;;;;;;;8.70;4.55;;;;;;;;;;5051317;28;20206;-64
2023/10/11 08:02:26;;;;;;;13.55;4.57;;;;;;;;;;5047508;28;20211;-64
2023/10/11 08:04:53;;;;;;;6.28;4.20;;;;;;;;;;5046744;28;20199;-64
2023/10/11 08:07:21;;;;;;;8.32;4.50;;;;;;;;;;5049486;28;20216;-64
2023/10/11 08:09:52;;;;;;;8.73;4.47;;;;;;;;;;5052733;28;20203;-64
2023/10/11 08:12:22;;;;;;;9.50;4.57;;;;;;;;;;5049929;28;20203;-64
2023/10/11 08:14:53;;;;;;;6.70;4.07;;;;;;;;;;5051071;28;20214;-64
2023/10/11 08:17:21;;;;;;;10.15;4.90;;;;;;;;;;5050747;28;20202;-63
2023/10/11 08:19:53;;;;;;;8.18;4.22;;;;;;;;;;5048227;28;20214;-64
2023/10/11 08:22:22;;;;;;;7.72;4.32;;;;;;;;;;5048591;28;20239;-63
2023/10/11 08:24:49;;;;;;;8.23;4.47;;;;;;;;;;5052206;28;20215;-63
2023/10/11 08:27:23;;;;;;;7.10;4.22;;;;;;;;;;5045001;28;20246;-65
2023/10/11 08:29:54;;;;;;;10.20;4.65;;;;;;;;;;5047003;28;20237;-63
2023/10/11 08:32:26;;;;;;;10.82;4.78;;;;;;;;;;5048697;28;20199;-64
2023/10/11 08:34:54;;;;;;;9.52;4.03;;;;;;;;;;5046530;28;20235;-63
2023/10/11 08:37:21;;;;;;;7.97;4.43;;;;;;;;;;5053666;28;20259;-64
2023/10/11 08:39:50;;;;;;;10.23;4.78;;;;;;;;;;5050233;28;20196;-63
2023/10/11 08:42:17;;;;;;;7.95;4.20;;;;;;;;;;5047518;28;20219;-64
2023/10/11 08:44:46;;;;;;;9.18;4.28;;;;;;;;;;5049781;28;20207;-63
2023/10/11 08:47:16;;;;;;;10.30;4.20;;;;;;;;;;5047834;28;20295;-63
2023/10/11 08:49:48;;;;;;;8.32;4.60;;;;;;;;;;5047365;28;20210;-63
2023/10/11 08:52:19;;;;;;;10.50;4.20;;;;;;;;;;5047478;28;20209;-65
2023/10/11 08:54:47;;;;;;;7.70;4.30;;;;;;;;;;5050434;28;20221;-63
2023/10/11 08:57:15;;;;;;;9.77;4.47;;;;;;;;;;5049509;28;20214;-64
2023/10/11 08:59:50;;;;;;;11.38;4.43;;;;;;;;;;5049156;28;20489;-63
2023/10/11 09:02:19;;;;;;;7.57;4.47;;;;;;;;;;5051450;28;20226;-62
2023/10/11 09:05:04;;;;;;;10.77;4.30;;;;;;;;;;5058310;28;20200;-63
2023/10/11 09:07:38;;;;;;;7.57;4.22;;;;;;;;;;5052721;28;20203;-63
2023/10/11 09:10:21;;;;;;;11.32;4.00;;;;;;;;;;5054381;28;20225;-63
2023/10/11 09:12:49;;;;;;;10.70;4.65;;;;;;;;;;5062040;28;20235;-63
2023/10/11 09:15:16;;;;;;;10.57;4.13;;;;;;;;;;5048645;28;20196;-64
2023/10/11 09:17:49;;;;;;;6.95;3.97;;;;;;;;;;5044440;28;20231;-64
2023/10/11 09:20:23;;;;;;;9.48;4.38;;;;;;;;;;5047162;28;20211;-63
2023/10/11 09:22:53;;;;;;;11.52;4.18;;;;;;;;;;5051867;28;20242;-64
2023/10/11 09:25:24;;;;;;;10.57;3.88;;;;;;;;;;5048382;28;20238;-65
2023/10/11 09:27:53;;;;;;;10.82;3.95;;;;;;;;;;5046807;28;20280;-64
2023/10/11 09:30:21;;;;;;;7.65;3.63;;;;;;;;;;5052197;28;20199;-62
2023/10/11 09:32:51;;;;;;;10.15;4.28;;;;;;;;;;5046162;28;20217;-63
2023/10/11 09:35:26;;;;;;;11.60;5.15;;;;;;;;;;5048804;28;20203;-63
2023/10/11 09:37:54;;;;;;;9.05;4.45;;;;;;;;;;5046709;28;20199;-63
2023/10/11 09:40:31;;;;;;;10.02;4.22;;;;;;;;;;5055419;28;20199;-63
2023/10/11 09:43:01;;;;;;;11.93;4.68;;;;;;;;;;5045732;28;20237;-63
2023/10/11 09:45:41;;;;;;;8.48;4.05;;;;;;;;;;5043739;28;20294;-62
2023/10/11 09:48:12;;;;;;;10.88;4.43;;;;;;;;;;5050371;28;20218;-62
2023/10/11 09:50:41;;;;;;;8.88;4.38;;;;;;;;;;5046014;28;20203;-62
2023/10/11 09:53:13;;;;;;;9.45;4.32;;;;;;;;;;5054505;28;20199;-61
2023/10/11 09:55:46;;;;;;;8.15;4.25;;;;;;;;;;5050829;28;20234;-66
2023/10/11 09:58:17;;;;;;;10.63;4.78;;;;;;;;;;5048165;28;20256;-66
2023/10/11 10:00:50;;;;;;;6.95;3.65;;;;;;;;;;5047468;28;20203;-66
2023/10/11 10:03:24;;;;;;;8.38;4.00;;;;;;;;;;5047012;28;20210;-67
2023/10/11 10:06:07;;;;;;;9.77;4.03;;;;;;;;;;5047805;28;20202;-66
2023/10/11 10:08:35;;;;;;;10.23;4.85;;;;;;;;;;5047512;28;20195;-66
2023/10/11 10:11:03;;;;;;;7.70;4.03;;;;;;;;;;5052366;28;20204;-66
2023/10/11 10:13:37;;;;;;;11.85;4.63;;;;;;;;;;5053388;28;20199;-66
2023/10/11 10:16:04;;;;;;;15.65;4.35;;;;;;;;;;5051655;28;20266;-66
2023/10/11 10:18:35;;;;;;;11.20;4.50;;;;;;;;;;5045650;28;20298;-65
2023/10/11 10:21:04;;;;;;;10.02;4.20;;;;;;;;;;5051822;28;20239;-66
2023/10/11 10:23:32;;;;;;;8.15;4.47;;;;;;;;;;5052502;28;20273;-67
2023/10/11 10:26:19;;;;;;;9.15;4.57;;;;;;;;;;5052426;28;20212;-66
2023/10/11 10:28:57;;;;;;;11.50;4.22;;;;;;;;;;5053376;28;20242;-66
2023/10/11 10:31:25;;;;;;;8.65;3.78;;;;;;;;;;5052582;28;20210;-67
2023/10/11 10:34:07;;;;;;;13.55;4.20;;;;;;;;;;5055378;28;20268;-66
2023/10/11 10:36:40;;;;;;;10.27;4.35;;;;;;;;;;5051360;28;20203;-66
2023/10/11 10:39:36;;;;;;;10.00;4.30;;;;;;;;;;5052078;28;20203;-66
2023/10/11 10:42:12;;;;;;;12.20;4.55;;;;;;;;;;5050223;28;20212;-66
2023/10/11 10:44:49;;;;;;;9.65;4.90;;;;;;;;;;5047143;28;20203;-66
2023/10/11 10:47:21;;;;;;;10.50;4.53;;;;;;;;;;5051771;28;20290;-66
2023/10/11 10:49:51;;;;;;;13.20;5.00;;;;;;;;;;5055967;28;20222;-66
2023/10/11 10:52:19;;;;;;;10.60;4.47;;;;;;;;;;5052138;28;20203;-66
2023/10/11 10:55:01;;;;;;;8.25;4.28;;;;;;;;;;5057786;28;20199;-66
2023/10/11 10:57:28;;;;;;;12.65;4.40;;;;;;;;;;5049411;28;20199;-66
2023/10/11 10:59:54;;;;;;;8.90;4.20;;;;;;;;;;5053823;28;20211;-65
2023/10/11 11:02:21;;;;;;;8.98;4.35;;;;;;;;;;5053434;28;20208;-66
2023/10/11 11:04:48;;;;;;;10.80;4.53;;;;;;;;;;5050197;28;20206;-66
2023/10/11 11:07:27;;;;;;;10.73;4.60;;;;;;;;;;5051484;28;20338;-66
2023/10/11 11:09:57;;;;;;;9.07;4.25;;;;;;;;;;5051120;28;20299;-66
2023/10/11 11:12:28;;;;;;;11.32;4.70;;;;;;;;;;5052662;28;20318;-66
2023/10/11 11:14:56;;;;;;;10.15;4.68;;;;;;;;;;5054900;28;20279;-66
2023/10/11 11:17:24;;;;;;;9.32;4.03;;;;;;;;;;5050807;28;20235;-66
2023/10/11 11:20:14;;;;;;;11.18;4.45;;;;;;;;;;5049335;28;20290;-66
2023/10/11 11:22:45;;;;;;;11.13;4.28;;;;;;;;;;5049319;28;20227;-66
2023/10/11 11:25:26;;;;;;;8.80;4.25;;;;;;;;;;5047486;28;20207;-66
2023/10/11 11:28:08;;;;;;;12.98;4.57;;;;;;;;;;5061167;28;20196;-66
2023/10/11 11:30:34;;;;;;;10.40;4.68;;;;;;;;;;5053060;28;20202;-66
2023/10/11 11:33:08;;;;;;;13.63;4.28;;;;;;;;;;5050360;28;20200;-66
2023/10/11 11:35:43;;;;;;;11.23;4.53;;;;;;;;;;5051196;28;20214;-65
2023/10/11 11:38:20;;;;;;;11.50;4.07;;;;;;;;;;5053566;28;20202;-66
2023/10/11 11:40:47;;;;;;;8.38;4.40;;;;;;;;;;5050093;28;20196;-66
2023/10/11 11:43:17;;;;;;;9.18;4.43;;;;;;;;;;5044705;28;20216;-65
2023/10/11 11:45:44;;;;;;;8.38;4.57;;;;;;;;;;5054116;28;20204;-66
2023/10/11 11:48:13;;;;;;;10.55;4.28;;;;;;;;;;5053070;28;20199;-66
2023/10/11 11:50:40;;;;;;;10.57;4.47;;;;;;;;;;5054515;28;20211;-66
2023/10/11 11:53:08;;;;;;;13.32;4.57;;;;;;;;;;5050260;28;20262;-66
2023/10/11 11:55:39;;;;;;;7.28;4.30;;;;;;;;;;5050634;28;20195;-66
2023/10/11 11:58:10;;;;;;;9.95;4.55;;;;;;;;;;5046758;28;20207;-65
2023/10/11 12:00:40;;;;;;;12.63;4.75;;;;;;;;;;5050206;28;20202;-66
2023/10/11 12:03:08;;;;;;;13.27;4.63;;;;;;;;;;5050526;28;20261;-65
2023/10/11 12:05:37;;;;;;;7.68;4.28;;;;;;;;;;5056026;28;20203;-65
2023/10/11 12:08:07;;;;;;;10.48;4.68;;;;;;;;;;5044953;28;20292;-65
2023/10/11 12:10:36;;;;;;;12.85;4.07;;;;;;;;;;5047798;28;20198;-65
2023/10/11 12:13:06;;;;;;;11.75;4.47;;;;;;;;;;5058332;28;20204;-66
2023/10/11 12:15:34;;;;;;;9.00;4.13;;;;;;;;;;5052661;28;20254;-62
2023/10/11 12:18:05;;;;;;;9.05;4.30;;;;;;;;;;5047308;28;20230;-63
2023/10/11 12:20:35;;;;;;;9.07;4.18;;;;;;;;;;5053418;28;20254;-62
2023/10/11 12:23:07;;;;;;;12.40;4.07;;;;;;;;;;5054490;28;20254;-63
2023/10/11 12:25:37;;;;;;;9.73;4.30;;;;;;;;;;5051252;28;20200;-62
2023/10/11 12:28:05;;;;;;;9.60;4.68;;;;;;;;;;5047336;28;20203;-64
2023/10/11 12:30:35;;;;;;;9.30;4.53;;;;;;;;;;5040621;28;20200;-62
2023/10/11 12:33:06;;;;;;;10.80;4.30;;;;;;;;;;5051316;28;20210;-62
2023/10/11 12:35:34;;;;;;;7.13;4.25;;;;;;;;;;5044700;28;20204;-61
2023/10/11 12:38:01;;;;;;;13.90;4.43;;;;;;;;;;5042685;28;20206;-61
2023/10/11 12:40:34;;;;;;;9.45;4.38;;;;;;;;;;5045499;28;20200;-62
2023/10/11 12:43:07;;;;;;;10.65;4.45;;;;;;;;;;5047831;28;20225;-62
2023/10/11 12:45:35;;;;;;;12.13;4.25;;;;;;;;;;5042967;28;20194;-62
2023/10/11 12:48:06;;;;;;;9.75;4.35;;;;;;;;;;5039691;28;20197;-61
2023/10/11 12:50:36;;;;;;;7.82;3.60;;;;;;;;;;5044969;28;20261;-62
2023/10/11 12:53:10;;;;;;;8.73;3.92;;;;;;;;;;5045542;28;20262;-61
2023/10/11 12:55:38;;;;;;;10.40;4.45;;;;;;;;;;5037477;28;20254;-62
2023/10/11 12:58:07;;;;;;;13.40;4.00;;;;;;;;;;5048113;28;20215;-61
2023/10/11 13:00:37;;;;;;;11.30;3.97;;;;;;;;;;5045553;28;20211;-61
2023/10/11 13:03:15;;;;;;;8.18;3.38;;;;;;;;;;5046709;28;20297;-62
2023/10/11 13:05:45;;;;;;;8.73;3.38;;;;;;;;;;5042880;28;20212;-60
2023/10/11 13:08:12;;;;;;;6.68;3.30;;;;;;;;;;5043169;28;20204;-62
2023/10/11 13:10:43;;;;;;;9.10;3.67;;;;;;;;;;5049459;28;20191;-62
2023/10/11 13:13:12;;;;;;;8.18;3.60;;;;;;;;;;5052051;28;20203;-62
2023/10/11 13:15:39;;;;;;;8.77;3.60;;;;;;;;;;5039995;28;20210;-62
2023/10/11 13:18:09;;;;;;;7.13;3.72;;;;;;;;;;5043544;28;20204;-63
2023/10/11 13:20:37;;;;;;;11.57;3.63;;;;;;;;;;5043860;28;20205;-61
2023/10/11 13:23:06;;;;;;;11.85;3.55;;;;;;;;;;5055144;28;20213;-62
2023/10/11 13:25:33;;;;;;;7.75;3.45;;;;;;;;;;5050384;28;20242;-65
2023/10/11 13:28:03;;;;;;;7.30;3.40;;;;;;;;;;5043842;28;20203;-65
2023/10/11 13:30:36;;;;;;;9.77;3.72;;;;;;;;;;5040619;28;20286;-65
2023/10/11 13:33:05;;;;;;;6.55;3.15;;;;;;;;;;5043686;28;20203;-65
2023/10/11 13:35:36;;;;;;;9.20;3.20;;;;;;;;;;5039907;28;20207;-68
2023/10/11 13:38:11;;;;;;;7.75;3.38;;;;;;;;;;5053907;28;20222;-66
2023/10/11 13:40:39;;;;;;;9.07;3.40;;;;;;;;;;5049738;28;20270;-66
2023/10/11 13:43:06;;;;;;;11.27;3.70;;;;;;;;;;5060024;28;20213;-65
2023/10/11 13:45:39;;;;;;;7.22;3.00;;;;;;;;;;5066801;28;20211;-66
2023/10/11 13:48:11;;;;;;;5.80;3.40;;;;;;;;;;5055867;28;20206;-66
2023/10/11 13:50:38;;;;;;;8.40;3.58;;;;;;;;;;5044067;28;20259;-66
2023/10/11 13:53:05;;;;;;;6.68;3.40;;;;;;;;;;5053592;28;20294;-66
2023/10/11 13:55:39;;;;;;;4.82;3.35;;;;;;;;;;5050744;28;20209;-65
2023/10/11 13:58:07;;;;;;;8.40;3.67;;;;;;;;;;5069512;28;20237;-65
2023/10/11 14:06:41;;;;;;;5.93;3.05;;;;;;;;;;4977015;28;20202;-65
2023/10/11 14:09:16;;;;;;;6.95;3.58;;;;;;;;;;5047889;28;20211;-65
2023/10/11 14:11:46;;;;;;;8.88;3.88;;;;;;;;;;5051923;28;20202;-66
2023/10/11 14:14:14;;;;;;;13.63;3.50;;;;;;;;;;5061441;28;20207;-65
2023/10/11 14:16:42;;;;;;;7.32;3.50;;;;;;;;;;5052389;28;20203;-65
2023/10/11 14:19:13;;;;;;;13.75;3.70;;;;;;;;;;5055932;28;20235;-65
2023/10/11 14:21:41;;;;;;;9.18;3.67;;;;;;;;;;5053352;28;20235;-65
2023/10/11 14:24:09;;;;;;;8.07;4.13;;;;;;;;;;5059426;28;20235;-65
2023/10/11 14:26:36;;;;;;;8.57;3.83;;;;;;;;;;5055274;28;20253;-66
2023/10/11 14:29:07;;;;;;;11.90;3.47;;;;;;;;;;5063272;28;20214;-66
2023/10/11 14:31:34;;;;;;;10.02;3.28;;;;;;;;;;5053387;28;20269;-66
2023/10/11 14:34:04;;;;;;;7.97;3.50;;;;;;;;;;5054604;28;20206;-66
2023/10/11 14:36:31;;;;;;;8.82;4.05;;;;;;;;;;5059271;28;20203;-65
2023/10/11 14:38:58;;;;;;;10.90;3.60;;;;;;;;;;5054798;28;20214;-66
2023/10/11 14:41:25;;;;;;;7.57;3.80;;;;;;;;;;5051444;28;20203;-65
2023/10/11 14:43:53;;;;;;;12.52;3.90;;;;;;;;;;5054981;28;20231;-65
2023/10/11 14:46:21;;;;;;;8.45;3.20;;;;;;;;;;5050914;28;20214;-66
2023/10/11 14:48:49;;;;;;;10.48;3.50;;;;;;;;;;5054784;28;20213;-65
2023/10/11 14:51:19;;;;;;;8.35;3.70;;;;;;;;;;5052742;28;20277;-65
2023/10/11 14:53:47;;;;;;;9.50;3.35;;;;;;;;;;5054102;28;20290;-65
2023/10/11 14:56:14;;;;;;;11.63;4.05;;;;;;;;;;5054773;28;20211;-65
2023/10/11 14:58:42;;;;;;;9.52;3.95;;;;;;;;;;5057869;28;20230;-65
2023/10/11 15:01:12;;;;;;;8.70;3.63;;;;;;;;;;5059629;28;20222;-66
2023/10/11 15:03:40;;;;;;;8.13;3.40;;;;;;;;;;5054549;28;20223;-65
2023/10/11 15:06:11;;;;;;;10.77;3.80;;;;;;;;;;5054126;28;20207;-66
2023/10/11 15:08:41;;;;;;;5.30;3.40;;;;;;;;;;5055340;28;20207;-65
2023/10/11 15:11:08;;;;;;;12.25;3.80;;;;;;;;;;5062807;28;20206;-66
2023/10/11 15:13:36;;;;;;;7.18;3.60;;;;;;;;;;5052201;28;20480;-65
2023/10/11 15:16:04;;;;;;;12.32;3.50;;;;;;;;;;5054446;28;20200;-65
2023/10/11 15:18:33;;;;;;;13.13;4.32;;;;;;;;;;5057839;28;20218;-66
2023/10/11 15:21:01;;;;;;;5.47;3.28;;;;;;;;;;5054945;28;20235;-66
2023/10/11 15:23:28;;;;;;;8.95;3.38;;;;;;;;;;5059017;28;20203;-65
2023/10/11 15:25:58;;;;;;;6.07;3.30;;;;;;;;;;5056046;28;20294;-65
2023/10/11 15:28:25;;;;;;;6.55;3.17;;;;;;;;;;5056264;28;20207;-66
2023/10/11 15:30:52;;;;;;;10.88;3.33;;;;;;;;;;5059099;28;20290;-66
2023/10/11 15:33:19;;;;;;;12.85;3.90;;;;;;;;;;5055929;28;20218;-66